createdAt,value
2018-01-15T00:01:35.580Z,60.70
2018-01-15T00:04:03.918Z,60.50
2018-01-15T00:06:31.408Z,60.50
2018-01-15T00:08:59.673Z,60.50
2018-01-15T00:11:27.190Z,60.50
2018-01-15T00:13:54.687Z,60.50
2018-01-15T00:16:22.205Z,60.40
2018-01-15T00:18:49.698Z,60.40
2018-01-15T00:21:17.212Z,60.30
2018-01-15T00:23:44.713Z,60.20
2018-01-15T00:26:12.222Z,60.10
2018-01-15T00:28:39.717Z,59.90
2018-01-15T00:31:07.233Z,59.90
2018-01-15T00:33:34.732Z,59.90
2018-01-15T00:36:02.248Z,59.90
2018-01-15T00:38:30.513Z,60.00
2018-01-15T00:40:58.805Z,59.90
2018-01-15T00:43:26.298Z,59.80
2018-01-15T00:45:53.806Z,59.90
2018-01-15T00:48:22.073Z,59.90
2018-01-15T00:50:49.593Z,59.80
2018-01-15T00:53:17.095Z,60.00
2018-01-15T00:55:45.374Z,60.00
2018-01-15T00:58:12.869Z,59.70
2018-01-15T01:00:40.385Z,59.70
2018-01-15T01:03:07.881Z,59.70
2018-01-15T01:05:35.389Z,59.70
2018-01-15T01:08:02.915Z,59.60
2018-01-15T01:10:30.425Z,59.60
2018-01-15T01:12:58.685Z,59.60
2018-01-15T01:15:26.197Z,59.60
2018-01-15T01:17:53.693Z,59.60
2018-01-15T01:20:21.210Z,59.50
2018-01-15T01:22:48.709Z,59.50
2018-01-15T01:25:16.221Z,59.50
2018-01-15T01:27:43.718Z,59.40
2018-01-15T01:30:11.229Z,59.40
2018-01-15T01:32:39.493Z,59.40
2018-01-15T01:35:07.769Z,59.40
2018-01-15T01:37:36.026Z,59.40
2018-01-15T01:40:03.537Z,59.20
2018-01-15T01:42:31.030Z,59.30
2018-01-15T01:44:58.537Z,59.30
2018-01-15T01:47:26.805Z,59.20
2018-01-15T01:49:55.076Z,59.20
2018-01-15T01:52:23.336Z,59.10
2018-01-15T01:54:50.849Z,59.60
2018-01-15T01:57:18.350Z,59.10
2018-01-15T01:59:45.861Z,59.10
2018-01-15T02:02:13.353Z,59.10
2018-01-15T02:04:40.869Z,59.10
2018-01-15T02:07:08.361Z,59.20
2018-01-15T02:09:35.860Z,59.20
2018-01-15T02:12:04.143Z,59.30
2018-01-15T02:14:32.401Z,59.30
2018-01-15T02:16:59.913Z,59.30
2018-01-15T02:19:27.424Z,59.40
2018-01-15T02:21:55.713Z,59.30
2018-01-15T02:24:23.973Z,59.30
2018-01-15T02:26:51.494Z,59.20
2018-01-15T02:29:18.992Z,59.30
2018-01-15T02:31:46.509Z,59.30
2018-01-15T02:34:14.006Z,59.40
2018-01-15T02:36:41.518Z,59.50
2018-01-15T02:39:09.014Z,59.70
2018-01-15T02:41:36.524Z,59.80
2018-01-15T02:44:04.033Z,60.70
2018-01-15T02:46:31.546Z,60.10
2018-01-15T02:48:59.049Z,60.20
2018-01-15T02:51:26.568Z,60.30
2018-01-15T02:53:54.069Z,60.40
2018-01-15T02:56:21.582Z,60.40
2018-01-15T02:58:49.077Z,60.40
2018-01-15T03:01:17.357Z,60.60
2018-01-15T03:03:44.856Z,61.20
2018-01-15T03:06:13.129Z,60.80
2018-01-15T03:08:41.393Z,60.80
2018-01-15T03:11:09.674Z,61.00
2018-01-15T03:13:37.938Z,60.90
2018-01-15T03:16:05.445Z,60.70
2018-01-15T03:18:32.939Z,60.80
2018-01-15T03:21:01.044Z,60.70
2018-01-15T03:23:29.301Z,60.80
2018-01-15T03:25:56.813Z,60.70
2018-01-15T03:28:24.304Z,60.80
2018-01-15T03:30:51.817Z,60.90
2018-01-15T03:33:19.309Z,60.80
2018-01-15T03:35:46.820Z,60.70
2018-01-15T03:38:15.085Z,60.70
2018-01-15T03:40:43.365Z,61.40
2018-01-15T03:43:11.624Z,60.70
2018-01-15T03:45:39.133Z,60.60
2018-01-15T03:48:06.630Z,60.50
2018-01-15T03:50:34.141Z,60.40
2018-01-15T03:53:01.636Z,60.30
2018-01-15T03:55:29.150Z,60.40
2018-01-15T03:57:57.405Z,60.30
2018-01-15T04:00:24.916Z,60.20
2018-01-15T04:02:52.430Z,60.10
2018-01-15T04:05:20.713Z,60.00
2018-01-15T04:07:48.973Z,59.90
2018-01-15T04:10:16.478Z,59.90
2018-01-15T04:12:44.023Z,59.80
2018-01-15T04:15:11.537Z,59.80
2018-01-15T04:17:39.081Z,59.70
2018-01-15T04:20:06.577Z,59.60
2018-01-15T04:22:34.853Z,59.60
2018-01-15T04:25:03.116Z,59.50
2018-01-15T04:27:30.628Z,59.40
2018-01-15T04:29:58.125Z,59.40
2018-01-15T04:32:25.641Z,59.40
2018-01-15T04:34:53.140Z,59.40
2018-01-15T04:37:20.654Z,59.40
2018-01-15T04:39:48.157Z,59.30
2018-01-15T04:42:15.669Z,59.30
2018-01-15T04:44:43.189Z,59.80
2018-01-15T04:47:10.701Z,59.30
2018-01-15T04:49:38.209Z,59.30
2018-01-15T04:52:05.724Z,59.30
2018-01-15T04:54:33.219Z,59.30
2018-01-15T04:57:00.736Z,59.30
2018-01-15T04:59:28.231Z,59.40
2018-01-15T05:01:55.749Z,59.50
2018-01-15T05:04:23.250Z,59.50
2018-01-15T05:06:50.765Z,59.60
2018-01-15T05:09:18.257Z,59.70
2018-01-15T05:11:45.769Z,59.80
2018-01-15T05:14:13.269Z,59.90
2018-01-15T05:16:40.838Z,60.00
2018-01-15T05:19:08.317Z,60.00
2018-01-15T05:21:35.829Z,60.80
2018-01-15T05:24:03.321Z,60.10
2018-01-15T05:26:30.841Z,60.20
2018-01-15T05:28:58.337Z,60.30
2018-01-15T05:31:25.845Z,60.30
2018-01-15T05:33:53.341Z,60.30
2018-01-15T05:36:20.853Z,60.30
2018-01-15T05:38:49.113Z,60.30
2018-01-15T05:41:17.392Z,60.30
2018-01-15T05:43:45.652Z,60.80
2018-01-15T05:46:13.161Z,60.20
2018-01-15T05:48:40.662Z,60.30
2018-01-15T05:51:08.157Z,60.20
2018-01-15T05:53:36.434Z,60.40
2018-01-15T05:56:04.713Z,60.40
2018-01-15T05:58:32.235Z,60.40
2018-01-15T06:00:59.747Z,60.40
2018-01-15T06:03:27.260Z,60.50
2018-01-15T06:05:54.758Z,60.60
2018-01-15T06:08:22.278Z,60.60
2018-01-15T06:10:49.773Z,60.60
2018-01-15T06:13:17.288Z,60.80
2018-01-15T06:15:44.785Z,60.70
2018-01-15T06:18:12.302Z,60.70
2018-01-15T06:20:39.802Z,60.70
2018-01-15T06:23:07.322Z,60.70
2018-01-15T06:25:34.816Z,60.70
2018-01-15T06:28:03.089Z,60.70
2018-01-15T06:30:31.352Z,60.70
2018-01-15T06:32:59.644Z,60.80
2018-01-15T06:35:27.906Z,60.80
2018-01-15T06:37:56.186Z,60.90
2018-01-15T06:40:24.448Z,60.80
2018-01-15T06:42:51.965Z,60.70
2018-01-15T06:45:19.465Z,60.70
2018-01-15T06:47:46.977Z,60.70
2018-01-15T06:50:14.469Z,60.80
2018-01-15T06:52:41.981Z,60.80
2018-01-15T06:55:09.473Z,60.80
2018-01-15T06:57:36.994Z,60.70
2018-01-15T07:00:04.498Z,61.40
2018-01-15T07:02:32.008Z,60.70
2018-01-15T07:05:00.285Z,60.90
2018-01-15T07:07:28.556Z,60.80
2018-01-15T07:09:56.821Z,60.90
2018-01-15T07:12:25.101Z,60.80
2018-01-15T07:14:53.353Z,60.90
2018-01-15T07:17:20.885Z,60.80
2018-01-15T07:19:48.382Z,60.80
2018-01-15T07:22:15.898Z,60.70
2018-01-15T07:24:43.398Z,60.80
2018-01-15T07:27:11.698Z,60.90
2018-01-15T07:29:39.961Z,60.90
2018-01-15T07:32:08.242Z,60.90
2018-01-15T07:34:36.505Z,60.90
2018-01-15T07:37:04.023Z,60.80
2018-01-15T07:39:31.517Z,60.80
2018-01-15T07:41:59.029Z,60.80
2018-01-15T07:44:26.525Z,60.50
2018-01-15T07:46:54.021Z,60.50
2018-01-15T07:49:22.311Z,60.70
2018-01-15T07:51:49.818Z,60.30
2018-01-15T07:54:17.330Z,60.70
2018-01-15T07:56:44.825Z,60.80
2018-01-15T07:59:12.337Z,60.80
2018-01-15T08:01:40.595Z,60.70
2018-01-15T08:04:08.877Z,60.60
2018-01-15T08:06:37.141Z,60.60
2018-01-15T08:09:04.654Z,60.50
2018-01-15T08:11:32.149Z,60.60
2018-01-15T08:13:59.666Z,60.40
2018-01-15T08:16:27.161Z,60.40
2018-01-15T08:18:54.678Z,60.40
2018-01-15T08:21:22.181Z,60.40
2018-01-15T08:23:49.690Z,60.30
2018-01-15T08:26:17.193Z,60.40
2018-01-15T08:28:44.741Z,60.40
2018-01-15T08:31:12.274Z,60.30
2018-01-15T08:33:39.782Z,60.50
2018-01-15T08:36:08.075Z,60.40
2018-01-15T08:38:35.581Z,60.30
2018-01-15T08:41:03.081Z,60.20
2018-01-15T08:43:30.598Z,60.10
2018-01-15T08:45:58.146Z,60.10
2018-01-15T08:48:26.385Z,60.20
2018-01-15T08:50:53.882Z,60.10
2018-01-15T08:53:21.396Z,60.10
2018-01-15T08:55:48.890Z,60.10
2018-01-15T08:58:16.405Z,60.10
2018-01-15T09:00:43.920Z,60.00
2018-01-15T09:03:11.439Z,60.00
2018-01-15T09:05:38.943Z,60.10
2018-01-15T09:08:07.226Z,60.20
2018-01-15T09:10:34.734Z,60.20
2018-01-15T09:13:03.013Z,60.30
2018-01-15T09:15:31.278Z,60.50
2018-01-15T09:17:58.801Z,60.30
2018-01-15T09:20:26.297Z,60.30
2018-01-15T09:22:53.786Z,60.20
2018-01-15T09:25:21.302Z,60.20
2018-01-15T09:27:48.803Z,60.00
2018-01-15T09:30:16.349Z,59.90
2018-01-15T09:32:43.864Z,59.30
2018-01-15T09:35:11.387Z,59.50
2018-01-15T09:37:38.902Z,58.70
2018-01-15T09:40:06.421Z,59.20
2018-01-15T09:42:33.917Z,58.70
2018-01-15T09:45:01.437Z,59.00
2018-01-15T09:47:28.937Z,58.80
2018-01-15T09:49:56.460Z,58.70
2018-01-15T09:52:23.967Z,59.30
2018-01-15T09:54:52.253Z,59.00
2018-01-15T09:57:20.542Z,59.00
2018-01-15T09:59:48.066Z,58.90
2018-01-15T10:02:15.566Z,58.90
2018-01-15T10:04:43.081Z,58.60
2018-01-15T10:07:10.587Z,58.80
2018-01-15T10:09:38.106Z,59.00
2018-01-15T10:12:05.611Z,58.90
2018-01-15T10:14:33.141Z,58.20
2018-01-15T10:17:01.409Z,58.20
2018-01-15T10:19:28.994Z,58.00
2018-01-15T10:21:56.506Z,57.90
2018-01-15T10:24:24.026Z,57.80
2018-01-15T10:26:51.530Z,57.70
2018-01-15T10:29:19.044Z,58.20
2018-01-15T10:31:46.537Z,58.30
2018-01-15T10:34:14.070Z,58.40
2018-01-15T10:36:41.572Z,58.50
2018-01-15T10:39:09.873Z,58.60
2018-01-15T10:41:38.129Z,58.50
2018-01-15T10:44:05.643Z,58.40
2018-01-15T10:46:33.990Z,58.50
2018-01-15T10:49:02.301Z,58.70
2018-01-15T10:51:29.808Z,58.70
2018-01-15T10:53:59.263Z,58.30
2018-01-15T10:56:26.766Z,58.20
2018-01-15T10:58:54.281Z,58.10
2018-01-15T11:01:27.746Z,58.10
2018-01-15T11:03:56.022Z,58.00
2018-01-15T11:06:24.284Z,57.80
2018-01-15T11:08:52.589Z,57.80
2018-01-15T11:11:20.081Z,57.70
2018-01-15T11:13:47.599Z,57.60
2018-01-15T11:16:15.881Z,57.00
2018-01-15T11:18:44.169Z,56.70
2018-01-15T11:21:11.665Z,56.60
2018-01-15T11:23:39.232Z,56.50
2018-01-15T11:26:06.721Z,56.50
2018-01-15T11:28:34.986Z,55.90
2018-01-15T11:31:02.501Z,55.90
2018-01-15T11:33:30.015Z,56.20
2018-01-15T11:35:58.312Z,55.80
2018-01-15T11:38:25.814Z,55.70
2018-01-15T11:40:53.321Z,55.40
2018-01-15T11:43:21.577Z,54.90
2018-01-15T11:45:49.089Z,54.90
2018-01-15T11:48:16.581Z,54.60
2018-01-15T11:50:44.088Z,54.80
2018-01-15T11:53:11.585Z,54.50
2018-01-15T11:55:39.111Z,54.20
2018-01-15T11:58:06.610Z,53.90
2018-01-15T12:00:34.118Z,53.60
2018-01-15T12:03:01.613Z,53.30
2018-01-15T12:05:29.134Z,53.50
2018-01-15T12:07:56.626Z,53.40
2018-01-15T12:10:24.136Z,53.60
2018-01-15T12:12:52.397Z,53.50
2018-01-15T12:15:19.909Z,53.40
2018-01-15T12:17:47.405Z,53.40
2018-01-15T12:20:14.925Z,53.30
2018-01-15T12:22:42.418Z,53.20
2018-01-15T12:25:09.930Z,53.30
2018-01-15T12:27:37.431Z,53.10
2018-01-15T12:30:04.958Z,53.10
2018-01-15T12:32:32.458Z,53.20
2018-01-15T12:34:59.950Z,53.60
2018-01-15T12:37:28.220Z,52.40
2018-01-15T12:39:56.482Z,52.10
2018-01-15T12:42:23.989Z,52.10
2018-01-15T12:44:51.498Z,52.30
2018-01-15T12:47:19.009Z,52.10
2018-01-15T12:49:47.274Z,51.50
2018-01-15T12:52:14.782Z,51.50
2018-01-15T12:54:42.278Z,51.50
2018-01-15T12:57:10.555Z,50.60
2018-01-15T12:59:38.822Z,50.30
2018-01-15T13:02:07.101Z,50.50
2018-01-15T13:04:35.361Z,50.00
2018-01-15T13:07:02.873Z,50.00
2018-01-15T13:09:31.133Z,49.00
2018-01-15T13:11:58.641Z,48.90
2018-01-15T13:14:26.139Z,48.70
2018-01-15T13:16:54.413Z,45.70
2018-01-15T13:19:22.681Z,47.00
2018-01-15T13:21:50.961Z,45.40
2018-01-15T13:24:19.225Z,46.10
2018-01-15T13:26:46.750Z,46.00
2018-01-15T13:29:14.238Z,46.10
2018-01-15T13:31:41.753Z,44.50
2018-01-15T13:34:09.247Z,44.30
2018-01-15T13:36:36.770Z,45.10
2018-01-15T13:39:04.274Z,45.40
2018-01-15T13:41:31.765Z,45.60
2018-01-15T13:43:59.275Z,45.70
2018-01-15T13:46:26.815Z,46.20
2018-01-15T13:48:54.318Z,44.60
2018-01-15T13:51:22.582Z,44.60
2018-01-15T13:53:50.102Z,44.60
2018-01-15T13:56:17.606Z,44.90
2018-01-15T13:58:45.121Z,45.60
2018-01-15T14:01:12.649Z,45.90
2018-01-15T14:03:40.926Z,46.10
2018-01-15T14:06:09.196Z,46.50
2018-01-15T14:08:37.493Z,46.60
2018-01-15T14:11:04.985Z,46.60
2018-01-15T14:13:32.510Z,46.60
2018-01-15T14:15:59.996Z,47.00
2018-01-15T14:18:28.288Z,47.40
2018-01-15T14:20:55.795Z,47.60
2018-01-15T14:23:24.109Z,48.50
2018-01-15T14:25:51.605Z,48.50
2018-01-15T14:28:19.117Z,48.60
2018-01-15T14:30:46.618Z,48.10
2018-01-15T14:33:14.160Z,48.10
2018-01-15T14:35:41.673Z,48.30
2018-01-15T14:38:09.182Z,48.00
2018-01-15T14:40:36.704Z,48.30
2018-01-15T14:43:04.223Z,48.50
2018-01-15T14:45:31.714Z,48.50
2018-01-15T14:47:59.226Z,48.50
2018-01-15T14:50:26.739Z,48.90
2018-01-15T14:52:54.297Z,48.50
2018-01-15T14:55:21.842Z,48.50
2018-01-15T14:57:50.126Z,49.10
2018-01-15T15:00:17.619Z,49.10
2018-01-15T15:02:45.895Z,48.70
2018-01-15T15:05:13.393Z,48.70
2018-01-15T15:07:40.908Z,48.90
2018-01-15T15:10:08.433Z,49.20
2018-01-15T15:12:35.945Z,49.60
2018-01-15T15:15:03.491Z,49.70
2018-01-15T15:17:30.995Z,49.90
2018-01-15T15:19:59.269Z,49.80
2018-01-15T15:22:27.553Z,49.60
2018-01-15T15:24:55.817Z,49.70
2018-01-15T15:27:23.318Z,49.70
2018-01-15T15:29:50.845Z,50.60
2018-01-15T15:32:19.106Z,50.50
2018-01-15T15:34:46.627Z,50.40
2018-01-15T15:37:14.203Z,50.50
2018-01-15T15:39:41.741Z,50.80
2018-01-15T15:42:09.237Z,51.00
2018-01-15T15:44:36.751Z,51.20
2018-01-15T15:47:04.258Z,51.60
2018-01-15T15:49:31.781Z,51.80
2018-01-15T15:51:59.287Z,52.00
2018-01-15T15:54:26.849Z,52.30
2018-01-15T15:56:54.352Z,52.20
2018-01-15T15:59:21.871Z,52.40
2018-01-15T16:01:50.134Z,52.80
2018-01-15T16:04:17.705Z,52.80
2018-01-15T16:06:46.007Z,53.20
2018-01-15T16:09:13.533Z,53.00
2018-01-15T16:11:41.090Z,53.20
2018-01-15T16:14:08.718Z,53.30
2018-01-15T16:16:36.248Z,53.50
2018-01-15T16:19:03.761Z,53.50
2018-01-15T16:21:38.014Z,53.60
2018-01-15T16:24:07.362Z,53.80
2018-01-15T16:26:34.871Z,53.70
2018-01-15T16:29:03.151Z,54.00
2018-01-15T16:31:31.439Z,54.00
2018-01-15T16:33:58.965Z,54.00
2018-01-15T16:36:27.421Z,54.10
2018-01-15T16:38:55.073Z,54.20
2018-01-15T16:41:22.569Z,54.20
2018-01-15T16:43:50.073Z,54.30
2018-01-15T16:46:17.585Z,54.40
2018-01-15T16:48:45.110Z,54.50
2018-01-15T16:51:12.621Z,54.30
2018-01-15T16:53:40.922Z,54.70
2018-01-15T16:56:08.444Z,54.60
2018-01-15T16:58:36.726Z,54.90
2018-01-15T17:01:05.015Z,55.00
2018-01-15T17:03:33.300Z,55.80
2018-01-15T17:06:00.810Z,55.10
2018-01-15T17:08:28.689Z,55.20
2018-01-15T17:10:56.205Z,55.40
2018-01-15T17:13:23.744Z,55.50
2018-01-15T17:15:51.277Z,55.60
2018-01-15T17:18:18.768Z,55.70
2018-01-15T17:20:46.331Z,55.80
2018-01-15T17:23:13.849Z,55.80
2018-01-15T17:25:42.403Z,55.90
2018-01-15T17:28:09.913Z,55.90
2018-01-15T17:30:38.195Z,55.90
2018-01-15T17:33:05.721Z,55.90
2018-01-15T17:35:33.265Z,55.80
2018-01-15T17:38:00.773Z,55.80
2018-01-15T17:40:29.048Z,55.60
2018-01-15T17:42:57.326Z,55.60
2018-01-15T17:45:25.586Z,55.60
2018-01-15T17:47:53.876Z,55.70
2018-01-15T17:50:22.137Z,55.60
2018-01-15T17:52:49.686Z,55.50
2018-01-15T17:55:17.182Z,55.50
2018-01-15T17:57:44.721Z,55.50
2018-01-15T18:00:12.217Z,55.10
2018-01-15T18:02:39.746Z,55.10
2018-01-15T18:05:08.033Z,54.70
2018-01-15T18:07:35.564Z,54.50
2018-01-15T18:10:03.070Z,54.60
2018-01-15T18:12:30.606Z,54.80
2018-01-15T18:14:58.861Z,54.90
2018-01-15T18:17:26.373Z,54.80
2018-01-15T18:19:53.861Z,54.80
2018-01-15T18:22:21.365Z,54.80
2018-01-15T18:24:48.865Z,55.10
2018-01-15T18:27:17.193Z,55.20
2018-01-15T18:29:45.575Z,55.40
2018-01-15T18:32:13.101Z,55.30
2018-01-15T18:34:41.394Z,55.60
2018-01-15T18:37:08.901Z,55.50
2018-01-15T18:39:36.444Z,55.60
2018-01-15T18:42:03.969Z,55.60
2018-01-15T18:44:31.497Z,55.70
2018-01-15T18:46:59.009Z,55.70
2018-01-15T18:49:27.351Z,55.60
2018-01-15T18:51:54.874Z,55.60
2018-01-15T18:54:22.425Z,55.50
2018-01-15T18:56:49.933Z,55.50
2018-01-15T18:59:18.209Z,55.60
2018-01-15T19:01:45.742Z,55.50
2018-01-15T19:04:13.239Z,55.60
2018-01-15T19:06:40.762Z,55.70
2018-01-15T19:09:08.265Z,55.70
2018-01-15T19:11:35.781Z,55.70
2018-01-15T19:14:03.301Z,55.70
2018-01-15T19:16:30.821Z,55.80
2018-01-15T19:18:58.344Z,55.80
2018-01-15T19:21:25.862Z,55.70
2018-01-15T19:23:54.130Z,55.40
2018-01-15T19:26:21.642Z,55.20
2018-01-15T19:28:49.163Z,55.40
2018-01-15T19:31:17.437Z,55.10
2018-01-15T19:33:44.966Z,55.10
2018-01-15T19:36:18.080Z,54.90
2018-01-15T19:38:46.388Z,55.10
2018-01-15T19:41:14.428Z,55.00
2018-01-15T19:44:02.375Z,55.40
2018-01-15T19:46:36.405Z,55.50
2018-01-15T19:49:09.586Z,55.40
2018-01-15T19:51:42.910Z,55.60
2018-01-15T19:54:16.284Z,55.80
2018-01-15T19:56:49.443Z,56.00
2018-01-15T19:59:22.597Z,56.20
2018-01-15T20:01:55.738Z,56.40
2018-01-15T20:04:29.855Z,56.70
2018-01-15T20:07:03.897Z,56.80
2018-01-15T20:09:37.131Z,56.70
2018-01-15T20:12:04.702Z,56.80
2018-01-15T20:14:32.247Z,57.00
2018-01-15T20:16:59.741Z,57.20
2018-01-15T20:19:28.054Z,57.30
2018-01-15T20:21:55.558Z,57.20
2018-01-15T20:24:23.090Z,57.40
2018-01-15T20:26:50.635Z,57.30
2018-01-15T20:29:18.224Z,57.30
2018-01-15T20:31:45.763Z,57.30
2018-01-15T20:34:13.330Z,57.30
2018-01-15T20:36:40.836Z,57.30
2018-01-15T20:39:09.187Z,57.10
2018-01-15T20:41:36.748Z,57.10
2018-01-15T20:44:04.287Z,57.00
2018-01-15T20:46:31.786Z,57.30
2018-01-15T20:49:00.061Z,57.20
2018-01-15T20:51:28.421Z,57.10
2018-01-15T20:53:55.960Z,57.00
2018-01-15T20:56:23.534Z,57.00
2018-01-15T20:58:51.139Z,57.10
2018-01-15T21:01:18.661Z,57.00
2018-01-15T21:03:46.177Z,57.00
2018-01-15T21:06:13.740Z,57.00
2018-01-15T21:08:41.296Z,57.00
2018-01-15T21:11:08.861Z,57.00
2018-01-15T21:13:36.370Z,57.00
2018-01-15T21:16:03.957Z,57.10
2018-01-15T21:18:31.562Z,57.10
2018-01-15T21:20:59.134Z,57.10
2018-01-15T21:23:26.658Z,57.10
2018-01-15T21:25:54.233Z,57.20
2018-01-15T21:28:21.741Z,57.30
2018-01-15T21:30:50.064Z,57.30
2018-01-15T21:33:17.614Z,57.20
2018-01-15T21:35:45.368Z,57.30
2018-01-15T21:38:12.915Z,57.40
2018-01-15T21:40:41.209Z,57.30
2018-01-15T21:43:08.741Z,57.20
2018-01-15T21:45:37.120Z,57.20
2018-01-15T21:48:05.429Z,57.20
2018-01-15T21:50:32.998Z,57.20
2018-01-15T21:53:01.509Z,57.30
2018-01-15T21:55:29.073Z,57.20
2018-01-15T21:57:56.616Z,57.20
2018-01-15T22:00:24.171Z,57.10
2018-01-15T22:02:52.438Z,57.40
2018-01-15T22:05:19.960Z,57.00
2018-01-15T22:07:48.218Z,57.00
2018-01-15T22:10:15.734Z,56.90
2018-01-15T22:12:43.225Z,56.90
2018-01-15T22:15:10.740Z,57.00
2018-01-15T22:17:38.249Z,57.00
2018-01-15T22:20:05.803Z,57.10
2018-01-15T22:22:33.347Z,57.00
2018-01-15T22:25:00.860Z,56.90
2018-01-15T22:27:28.354Z,56.70
2018-01-15T22:29:55.866Z,56.70
2018-01-15T22:32:24.129Z,56.60
2018-01-15T22:34:51.656Z,56.50
2018-01-15T22:37:19.154Z,57.10
2018-01-15T22:39:47.446Z,56.60
2018-01-15T22:42:14.939Z,56.50
2018-01-15T22:44:42.446Z,56.50
2018-01-15T22:47:10.705Z,56.90
2018-01-15T22:49:38.227Z,56.20
2018-01-15T22:52:05.733Z,56.20
2018-01-15T22:54:33.241Z,56.10
2018-01-15T22:57:00.733Z,56.00
2018-01-15T22:59:28.247Z,56.00
2018-01-15T23:01:55.742Z,56.00
2018-01-15T23:04:23.256Z,55.80
2018-01-15T23:06:50.754Z,55.60
2018-01-15T23:09:19.010Z,54.70
2018-01-15T23:11:46.523Z,54.60
2018-01-15T23:14:14.818Z,55.00
2018-01-15T23:16:43.098Z,54.50
2018-01-15T23:19:10.601Z,54.40
2018-01-15T23:21:38.109Z,54.70
2018-01-15T23:24:06.402Z,54.40
2018-01-15T23:26:34.657Z,54.20
2018-01-15T23:29:02.921Z,54.20
2018-01-15T23:31:30.434Z,54.10
2018-01-15T23:33:57.930Z,53.90
2018-01-15T23:36:25.442Z,53.70
2018-01-15T23:38:52.993Z,53.80
2018-01-15T23:41:20.498Z,53.60
2018-01-15T23:43:47.990Z,53.80
2018-01-15T23:46:16.269Z,53.30
2018-01-15T23:48:44.537Z,53.40
2018-01-15T23:51:12.812Z,53.70
2018-01-15T23:53:41.080Z,53.40
2018-01-15T23:56:08.586Z,53.30
2018-01-15T23:58:36.082Z,53.60
